< < Back
Terminal Aerodrome Forecast


Current Version              Previous Versions:   1  2  3  4  5  6  7  8  9  

Terminal Aerodrome Forecast

578
FTUS42 KGSP 261912 AAA
TAFGSP
TAF AMD
KGSP 261912Z 2619/2718 05007KT P6SM VCTS SCT045CB
     FM270000 VRB03KT P6SM FEW045
     FM271400 09006KT P6SM SCT045=

Latest METAR

065
SAUS70 KWBC 271800 RRJ
MTRGSP
METAR KGSP 271753Z 10010KT 10SM FEW042 SCT080 33/22 A3014 RMK AO2 SLP190
T03280217 10328 20244 58003


USA.gov is the U.S. government's official web portal to all federal, state and local government web resources and services.